Time;durP1;ratioP1;P1;durP2;ratioP2;P2;SDS_P1;SDS_P2;PMS_P1;PMS_P2;Temp;Humidity;BMP_temperature;BMP_pressure;BME280_temperature;BME280_humidity;BME280_pressure;Samples;Min_cycle;Max_cycle;Signal;HPM_P1;HPM_P2
2024/01/24 00:00:56;;;;;;;13.80;4.88;;;3.20;60.10;;;;;;4853051;28;115395;-80
2024/01/24 00:03:24;;;;;;;15.63;4.72;;;3.20;60.10;;;;;;4851394;29;116921;-80
2024/01/24 00:05:51;;;;;;;11.13;3.88;;;3.20;60.10;;;;;;4852383;29;114492;-80
2024/01/24 00:08:18;;;;;;;11.70;4.65;;;3.10;60.10;;;;;;4868169;28;114476;-80
2024/01/24 00:10:46;;;;;;;14.32;4.97;;;3.10;60.10;;;;;;4852768;28;115099;-81
2024/01/24 00:13:13;;;;;;;11.75;5.53;;;3.10;60.10;;;;;;4851923;29;114669;-81
2024/01/24 00:15:40;;;;;;;11.82;5.47;;;3.00;60.10;;;;;;4852574;29;114158;-81
2024/01/24 00:18:09;;;;;;;12.48;5.22;;;3.00;60.10;;;;;;4854098;29;114371;-81
2024/01/24 00:20:36;;;;;;;17.23;5.57;;;2.90;60.10;;;;;;4852180;29;115558;-81
2024/01/24 00:23:03;;;;;;;14.70;5.55;;;2.90;60.10;;;;;;4861250;29;114635;-82
2024/01/24 00:25:31;;;;;;;17.38;5.38;;;2.90;60.20;;;;;;4874871;28;114169;-81
2024/01/24 00:27:58;;;;;;;12.57;5.85;;;2.80;60.20;;;;;;4868523;28;114622;-81
2024/01/24 00:30:25;;;;;;;15.85;6.10;;;2.80;60.30;;;;;;4854506;28;115087;-80
2024/01/24 00:32:55;;;;;;;13.02;5.40;;;2.80;60.40;;;;;;4867429;28;114802;-80
2024/01/24 00:35:23;;;;;;;12.27;5.40;;;2.70;60.50;;;;;;4854447;29;114597;-80
2024/01/24 00:37:50;;;;;;;15.93;6.30;;;2.70;60.50;;;;;;4854853;28;114602;-80
2024/01/24 00:40:18;;;;;;;13.32;5.45;;;2.70;60.60;;;;;;4853168;28;115029;-80
2024/01/24 00:42:46;;;;;;;11.45;5.72;;;2.60;60.70;;;;;;4852424;28;115196;-80
2024/01/24 00:45:13;;;;;;;11.77;5.78;;;2.60;60.90;;;;;;4851368;29;114636;-80
2024/01/24 00:47:41;;;;;;;12.43;5.75;;;2.60;61.00;;;;;;4836503;29;114577;-80
2024/01/24 00:50:09;;;;;;;16.25;6.25;;;2.60;61.10;;;;;;4850933;29;115110;-80
2024/01/24 00:52:36;;;;;;;16.55;6.38;;;2.60;61.20;;;;;;4850682;29;114737;-80
2024/01/24 00:55:04;;;;;;;16.33;6.15;;;2.50;61.30;;;;;;4851669;29;114265;-80
2024/01/24 00:57:31;;;;;;;17.33;6.45;;;2.50;61.30;;;;;;4867399;28;114185;-80
2024/01/24 00:59:58;;;;;;;19.15;7.18;;;2.50;61.30;;;;;;4850531;29;117649;-80
2024/01/24 01:02:26;;;;;;;12.00;6.15;;;2.40;61.40;;;;;;4852274;28;114556;-80
2024/01/24 01:04:53;;;;;;;12.25;5.78;;;2.40;61.50;;;;;;4852798;29;114241;-80
2024/01/24 01:07:21;;;;;;;14.02;5.85;;;2.30;61.60;;;;;;4852618;29;114373;-80
2024/01/24 01:09:48;;;;;;;15.63;6.30;;;2.20;61.80;;;;;;4851627;28;115061;-80
2024/01/24 01:12:15;;;;;;;21.08;5.90;;;2.10;61.90;;;;;;4866237;28;114698;-81
2024/01/24 01:14:46;;;;;;;14.00;5.68;;;2.10;62.10;;;;;;4851543;29;114193;-81
2024/01/24 01:17:13;;;;;;;12.95;5.53;;;2.10;62.10;;;;;;4867101;28;114348;-81
2024/01/24 01:19:41;;;;;;;17.42;6.15;;;2.20;62.20;;;;;;4866215;28;114981;-81
2024/01/24 01:22:08;;;;;;;18.73;6.78;;;2.10;62.30;;;;;;4851683;29;114760;-81
2024/01/24 01:24:37;;;;;;;14.43;6.95;;;2.20;62.30;;;;;;4866855;28;114431;-81
2024/01/24 01:27:04;;;;;;;18.88;6.40;;;2.20;62.40;;;;;;4852951;29;114255;-81
2024/01/24 01:29:31;;;;;;;17.98;7.43;;;2.20;62.40;;;;;;4850402;29;115568;-80
2024/01/24 01:31:59;;;;;;;21.88;8.00;;;2.20;62.50;;;;;;4850240;29;114817;-81
2024/01/24 01:34:26;;;;;;;14.55;6.53;;;2.20;62.60;;;;;;4865373;28;114695;-81
2024/01/24 01:36:54;;;;;;;19.02;6.72;;;2.20;62.60;;;;;;4852505;28;114197;-81
2024/01/24 01:39:21;;;;;;;16.30;6.65;;;2.20;62.60;;;;;;4850114;29;118076;-81
2024/01/24 01:41:48;;;;;;;12.23;6.10;;;2.30;62.60;;;;;;4864613;28;115215;-81
2024/01/24 01:44:17;;;;;;;18.98;6.82;;;2.30;62.60;;;;;;4850012;29;114300;-81
2024/01/24 01:46:47;;;;;;;15.77;6.80;;;2.30;62.50;;;;;;4849687;29;114507;-81
2024/01/24 01:49:14;;;;;;;16.10;6.90;;;2.40;62.60;;;;;;4833069;29;115381;-82
2024/01/24 01:51:42;;;;;;;18.65;6.93;;;2.30;62.60;;;;;;4849216;29;114690;-81
2024/01/24 01:54:09;;;;;;;19.92;7.57;;;2.40;62.60;;;;;;4865159;28;114274;-81
2024/01/24 01:56:37;;;;;;;17.70;7.53;;;2.30;62.60;;;;;;4849611;29;114351;-81
2024/01/24 01:59:05;;;;;;;20.17;7.00;;;2.30;62.60;;;;;;4832837;29;115117;-81
2024/01/24 02:01:32;;;;;;;15.15;6.65;;;2.40;62.70;;;;;;4864231;28;114747;-81
2024/01/24 02:04:00;;;;;;;24.85;7.82;;;2.40;62.70;;;;;;4849562;29;114641;-81
2024/01/24 02:06:31;;;;;;;22.13;9.25;;;2.30;62.70;;;;;;4861195;28;114529;-81
2024/01/24 02:08:59;;;;;;;18.85;8.55;;;2.30;62.80;;;;;;4869047;28;114467;-81
2024/01/24 02:11:26;;;;;;;18.38;7.65;;;2.20;62.80;;;;;;4836427;29;117564;-81
2024/01/24 02:14:00;;;;;;;17.70;7.68;;;2.30;62.90;;;;;;4851163;29;114738;-81
2024/01/24 02:16:27;;;;;;;15.53;7.23;;;2.20;63.20;;;;;;4851034;28;114309;-79
2024/01/24 02:18:56;;;;;;;20.08;7.57;;;2.20;63.20;;;;;;4832195;29;115151;-80
2024/01/24 02:21:23;;;;;;;15.85;4.75;;;2.10;63.40;;;;;;4849022;29;114656;-80
2024/01/24 02:23:51;;;;;;;18.20;6.93;;;2.10;63.70;;;;;;4849703;29;114338;-81
2024/01/24 02:26:19;;;;;;;21.55;7.68;;;2.10;63.60;;;;;;4833244;29;114449;-80
2024/01/24 02:28:46;;;;;;;17.60;7.38;;;2.10;63.70;;;;;;4849310;29;115182;-81
2024/01/24 02:31:13;;;;;;;21.65;8.02;;;2.10;63.70;;;;;;4849464;29;114630;-80
2024/01/24 02:33:41;;;;;;;21.33;7.82;;;2.10;63.70;;;;;;4848948;29;114526;-80
2024/01/24 02:36:09;;;;;;;18.77;7.88;;;2.10;63.80;;;;;;4864690;28;114424;-80
2024/01/24 02:38:37;;;;;;;21.05;8.98;;;2.20;63.80;;;;;;4847590;29;117530;-80
2024/01/24 02:41:04;;;;;;;25.63;9.68;;;2.20;63.90;;;;;;4864161;28;114905;-80
2024/01/24 02:43:32;;;;;;;21.38;8.75;;;2.20;63.90;;;;;;4802394;28;1422795;-80
2024/01/24 02:46:00;;;;;;;21.38;8.48;;;2.20;63.90;;;;;;4858061;28;114669;-80
2024/01/24 02:48:27;;;;;;;15.98;6.72;;;2.30;63.90;;;;;;4871361;28;115095;-80
2024/01/24 02:50:55;;;;;;;19.17;6.82;;;2.30;63.90;;;;;;4888641;28;114637;-81
2024/01/24 02:53:22;;;;;;;14.57;5.85;;;2.40;63.90;;;;;;4889553;28;114387;-80
2024/01/24 02:55:49;;;;;;;15.65;6.35;;;2.40;63.90;;;;;;4888326;28;114543;-80
2024/01/24 02:58:19;;;;;;;13.75;5.43;;;2.50;63.90;;;;;;4875110;28;116309;-80
2024/01/24 03:00:47;;;;;;;14.90;6.43;;;2.40;63.90;;;;;;4859739;28;117928;-80
2024/01/24 03:03:15;;;;;;;18.05;6.25;;;2.50;64.00;;;;;;4889588;28;114550;-80
2024/01/24 03:05:43;;;;;;;15.70;6.05;;;2.50;63.90;;;;;;4888371;28;114706;-81
2024/01/24 03:08:11;;;;;;;13.07;5.10;;;2.50;63.90;;;;;;4887031;28;116450;-81
2024/01/24 03:10:38;;;;;;;13.93;5.25;;;2.50;63.90;;;;;;4887086;28;114696;-81
2024/01/24 03:13:05;;;;;;;13.50;4.78;;;2.60;63.90;;;;;;4888501;28;114607;-81
2024/01/24 03:15:33;;;;;;;12.98;5.28;;;2.60;63.90;;;;;;4889013;28;114462;-81
2024/01/24 03:18:00;;;;;;;14.93;6.25;;;2.60;63.80;;;;;;4887114;28;115212;-80
2024/01/24 03:20:29;;;;;;;16.20;5.43;;;2.70;63.90;;;;;;4888294;28;114819;-81
2024/01/24 03:22:56;;;;;;;13.60;5.93;;;2.70;63.90;;;;;;4888190;28;114415;-81
2024/01/24 03:25:23;;;;;;;14.55;4.93;;;2.70;63.80;;;;;;4857983;28;114408;-81
2024/01/24 03:27:51;;;;;;;15.32;6.18;;;2.70;63.80;;;;;;4850170;28;115094;-80
2024/01/24 03:30:20;;;;;;;24.02;9.32;;;2.70;63.70;;;;;;4850157;29;117238;-80
2024/01/24 03:32:51;;;;;;;23.40;8.75;;;2.70;63.70;;;;;;4852044;29;114586;-80
2024/01/24 03:35:18;;;;;;;23.77;8.60;;;2.80;63.70;;;;;;4853162;29;114153;-81
2024/01/24 03:37:45;;;;;;;20.13;7.88;;;2.80;63.70;;;;;;4852801;29;116331;-80
2024/01/24 03:40:15;;;;;;;14.98;5.70;;;2.80;63.70;;;;;;4853911;29;114756;-81
2024/01/24 03:42:43;;;;;;;12.73;5.68;;;2.90;63.70;;;;;;4853976;29;114333;-81
2024/01/24 03:45:11;;;;;;;16.80;5.55;;;2.90;63.60;;;;;;4852815;29;114521;-81
2024/01/24 03:47:40;;;;;;;15.18;5.00;;;2.90;63.60;;;;;;4851941;29;115251;-80
2024/01/24 03:50:08;;;;;;;19.02;5.60;;;3.00;63.70;;;;;;4863634;28;114109;-80
2024/01/24 03:52:35;;;;;;;13.30;4.57;;;2.90;63.60;;;;;;4869758;28;114255;-80
2024/01/24 03:55:03;;;;;;;13.90;4.97;;;3.00;63.60;;;;;;4854403;29;114738;-80
2024/01/24 03:57:33;;;;;;;10.98;4.60;;;3.00;63.60;;;;;;4851887;29;115091;-80
2024/01/24 04:00:00;;;;;;;14.25;4.97;;;3.00;63.60;;;;;;4853058;28;114557;-80
2024/01/24 04:02:38;;;;;;;11.90;4.13;;;3.00;63.50;;;;;;4851777;29;114483;-80
2024/01/24 04:05:06;;;;;;;13.43;5.15;;;3.00;63.50;;;;;;4852790;29;114392;-80
2024/01/24 04:07:33;;;;;;;11.02;4.60;;;3.00;63.50;;;;;;4852859;28;115391;-80
2024/01/24 04:10:01;;;;;;;9.98;4.40;;;3.10;63.50;;;;;;4867179;28;114839;-80
2024/01/24 04:12:29;;;;;;;11.82;4.38;;;3.10;63.50;;;;;;4853648;28;114609;-80
2024/01/24 04:14:58;;;;;;;14.45;3.90;;;3.10;63.50;;;;;;4852362;29;114414;-80
2024/01/24 04:17:26;;;;;;;16.27;4.90;;;3.10;63.70;;;;;;4852689;28;115454;-79
2024/01/24 04:19:53;;;;;;;17.25;4.70;;;3.10;63.60;;;;;;4851590;29;114873;-80
2024/01/24 04:22:21;;;;;;;16.40;4.32;;;3.10;63.60;;;;;;4821501;29;114300;-80
2024/01/24 04:24:48;;;;;;;12.73;6.15;;;3.10;63.60;;;;;;4852292;29;114307;-79
2024/01/24 04:27:16;;;;;;;14.07;4.90;;;3.10;63.60;;;;;;4850472;29;115389;-80
2024/01/24 04:29:43;;;;;;;17.00;5.50;;;3.10;63.60;;;;;;4835194;29;115106;-80
2024/01/24 04:32:10;;;;;;;19.38;7.53;;;3.20;63.60;;;;;;4852094;29;114438;-79
2024/01/24 04:34:38;;;;;;;25.88;7.70;;;3.20;63.60;;;;;;4836741;29;114458;-80
2024/01/24 04:37:05;;;;;;;26.95;9.30;;;3.20;63.60;;;;;;4835736;29;114756;-81
2024/01/24 04:39:32;;;;;;;21.38;7.15;;;3.20;63.60;;;;;;4852244;29;115310;-80
2024/01/24 04:41:59;;;;;;;20.70;6.68;;;3.30;63.70;;;;;;4836216;29;114586;-81
2024/01/24 04:44:38;;;;;;;18.00;8.27;;;3.30;63.70;;;;;;4838346;29;114295;-80
2024/01/24 04:47:06;;;;;;;13.65;5.28;;;3.30;63.70;;;;;;4850790;29;115709;-80
2024/01/24 04:49:33;;;;;;;13.55;4.68;;;3.40;63.70;;;;;;4850900;29;114672;-80
2024/01/24 04:52:13;;;;;;;14.43;4.03;;;3.40;63.70;;;;;;4852555;29;114394;-81
2024/01/24 04:54:43;;;;;;;7.57;3.17;;;3.40;63.80;;;;;;4852184;28;114350;-81
2024/01/24 04:57:11;;;;;;;8.13;2.60;;;3.50;63.90;;;;;;4850914;29;115587;-81
2024/01/24 04:59:40;;;;;;;8.65;2.60;;;3.50;64.00;;;;;;4850770;29;115841;-81
2024/01/24 05:02:22;;;;;;;8.45;1.77;;;3.60;64.10;;;;;;4851720;29;114530;-82
2024/01/24 05:04:49;;;;;;;7.63;1.77;;;3.60;64.20;;;;;;4851405;29;114510;-81
2024/01/24 05:07:17;;;;;;;8.20;1.95;;;3.70;64.30;;;;;;4850607;29;119181;-81
2024/01/24 05:09:44;;;;;;;5.75;1.90;;;3.80;64.50;;;;;;4851108;29;114604;-81
2024/01/24 05:12:12;;;;;;;5.65;1.42;;;3.80;64.60;;;;;;4867459;28;114605;-81
2024/01/24 05:14:41;;;;;;;6.30;1.83;;;3.80;64.70;;;;;;4852784;29;114391;-81
2024/01/24 05:17:08;;;;;;;4.63;1.40;;;3.90;64.90;;;;;;4850234;29;114979;-81
2024/01/24 05:19:36;;;;;;;5.40;1.67;;;3.90;64.90;;;;;;4851002;29;114781;-80
2024/01/24 05:22:05;;;;;;;5.03;1.48;;;4.00;65.00;;;;;;4822749;29;114492;-80
2024/01/24 05:24:32;;;;;;;4.78;1.30;;;4.00;65.20;;;;;;4852690;29;114335;-81
2024/01/24 05:27:03;;;;;;;4.22;1.52;;;4.00;65.50;;;;;;4851093;29;115361;-81
2024/01/24 05:29:31;;;;;;;6.32;1.50;;;4.00;65.50;;;;;;4866158;28;114611;-81
2024/01/24 05:31:59;;;;;;;8.15;1.95;;;4.00;65.70;;;;;;4854425;29;114315;-81
2024/01/24 05:34:26;;;;;;;3.80;1.30;;;4.00;65.90;;;;;;4846183;29;114350;-81
2024/01/24 05:36:53;;;;;;;3.70;1.30;;;4.00;66.00;;;;;;4873873;28;115108;-82
2024/01/24 05:39:21;;;;;;;3.92;1.42;;;4.00;66.30;;;;;;4855016;29;114679;-81
2024/01/24 05:41:48;;;;;;;4.88;1.27;;;4.00;66.40;;;;;;4852984;29;114670;-80
2024/01/24 05:44:16;;;;;;;5.75;1.60;;;4.10;66.60;;;;;;4853713;29;114273;-81
2024/01/24 05:46:43;;;;;;;3.60;1.60;;;4.00;66.60;;;;;;4851461;29;114739;-81
2024/01/24 05:49:11;;;;;;;5.25;1.65;;;4.00;66.90;;;;;;4851282;29;114583;-82
2024/01/24 05:51:42;;;;;;;3.50;1.60;;;4.00;67.00;;;;;;4867431;28;114331;-81
2024/01/24 05:54:10;;;;;;;6.00;2.20;;;4.10;67.30;;;;;;4850713;29;114504;-80
2024/01/24 05:56:38;;;;;;;3.63;1.42;;;4.00;67.30;;;;;;4851153;29;115063;-80
2024/01/24 05:59:05;;;;;;;4.13;1.70;;;4.00;67.40;;;;;;4851784;29;114714;-80
2024/01/24 06:01:36;;;;;;;3.85;1.63;;;4.00;67.50;;;;;;4851008;29;114404;-81
2024/01/24 06:04:04;;;;;;;5.70;2.22;;;4.00;67.60;;;;;;4850774;29;114403;-80
2024/01/24 06:06:31;;;;;;;5.80;2.42;;;4.10;67.70;;;;;;4833991;29;115285;-81
2024/01/24 06:09:00;;;;;;;4.93;2.40;;;4.10;67.80;;;;;;4851003;29;114649;-82
2024/01/24 06:11:27;;;;;;;6.40;2.60;;;4.10;68.00;;;;;;4843914;28;115366;-82
2024/01/24 06:13:54;;;;;;;10.70;4.10;;;4.10;68.10;;;;;;4857842;28;114553;-81
2024/01/24 06:16:22;;;;;;;7.75;4.20;;;4.10;68.20;;;;;;4856072;28;115021;-81
2024/01/24 06:18:49;;;;;;;13.98;7.75;;;4.00;68.20;;;;;;4861083;28;115210;-81
2024/01/24 06:21:17;;;;;;;15.88;9.60;;;3.90;68.30;;;;;;4860757;28;114707;-82
2024/01/24 06:23:44;;;;;;;14.93;9.90;;;3.90;68.30;;;;;;4860407;28;114568;-82
2024/01/24 06:26:11;;;;;;;16.23;8.50;;;3.80;68.30;;;;;;4855869;28;115733;-80
2024/01/24 06:28:39;;;;;;;17.92;10.15;;;3.80;68.30;;;;;;4868240;28;114629;-81
2024/01/24 06:31:06;;;;;;;19.35;10.40;;;3.70;68.40;;;;;;4868713;28;114345;-82
2024/01/24 06:33:33;;;;;;;19.73;8.95;;;3.70;68.50;;;;;;4884209;28;114413;-81
2024/01/24 06:36:02;;;;;;;18.23;9.50;;;3.70;68.50;;;;;;4866564;28;116135;-82
2024/01/24 06:38:30;;;;;;;16.17;9.65;;;3.70;68.60;;;;;;4866931;28;114700;-81
2024/01/24 06:40:57;;;;;;;14.82;8.63;;;3.70;68.60;;;;;;4869327;28;116398;-82
2024/01/24 06:43:24;;;;;;;16.63;9.10;;;3.60;68.60;;;;;;4869053;28;114408;-83
2024/01/24 06:45:52;;;;;;;14.85;7.85;;;3.60;68.70;;;;;;4867906;28;115345;-82
2024/01/24 06:48:19;;;;;;;15.50;7.95;;;3.60;68.70;;;;;;4868802;28;114766;-82
2024/01/24 06:50:47;;;;;;;12.23;6.45;;;3.60;68.90;;;;;;4851668;28;114429;-82
2024/01/24 06:53:14;;;;;;;16.02;9.48;;;3.60;68.90;;;;;;4883960;28;114262;-82
2024/01/24 06:55:42;;;;;;;17.95;9.68;;;3.60;68.90;;;;;;4862588;28;116252;-82
2024/01/24 06:58:09;;;;;;;16.75;9.35;;;3.50;69.00;;;;;;4848510;29;115327;-81
2024/01/24 07:00:39;;;;;;;16.58;9.90;;;3.60;69.20;;;;;;4848364;29;114805;-81
2024/01/24 07:03:07;;;;;;;16.88;9.70;;;3.60;69.20;;;;;;4850491;28;114450;-81
2024/01/24 07:05:34;;;;;;;16.67;10.63;;;3.60;69.20;;;;;;4849152;29;115762;-81
2024/01/24 07:08:02;;;;;;;18.23;11.18;;;3.60;69.30;;;;;;4832145;29;117149;-81
2024/01/24 07:10:29;;;;;;;19.27;10.68;;;3.60;69.40;;;;;;4848716;29;114788;-80
2024/01/24 07:12:57;;;;;;;16.33;9.55;;;3.60;69.70;;;;;;4848950;29;114708;-82
2024/01/24 07:15:25;;;;;;;20.20;11.15;;;3.60;69.90;;;;;;4847304;29;114811;-80
2024/01/24 07:17:52;;;;;;;19.40;9.52;;;3.50;69.90;;;;;;4833140;29;116046;-80
2024/01/24 07:20:19;;;;;;;16.70;9.90;;;3.50;70.20;;;;;;4848721;29;114888;-80
2024/01/24 07:22:47;;;;;;;18.15;8.82;;;3.50;70.60;;;;;;4850334;29;114434;-80
2024/01/24 07:25:14;;;;;;;16.00;6.60;;;3.50;70.70;;;;;;4879653;28;115709;-80
2024/01/24 07:27:44;;;;;;;13.88;7.53;;;3.50;70.90;;;;;;4847686;29;114217;-78
2024/01/24 07:30:13;;;;;;;12.40;6.93;;;3.40;70.70;;;;;;4852572;28;114280;-81
2024/01/24 07:32:42;;;;;;;13.52;7.68;;;3.40;70.70;;;;;;4851236;29;114314;-80
2024/01/24 07:35:09;;;;;;;9.52;5.25;;;3.40;70.70;;;;;;4848701;29;115153;-80
2024/01/24 07:37:40;;;;;;;10.90;6.30;;;3.40;70.90;;;;;;4849335;29;114599;-81
2024/01/24 07:40:08;;;;;;;11.27;7.00;;;3.50;70.70;;;;;;4849686;29;114583;-80
2024/01/24 07:42:35;;;;;;;11.75;7.03;;;3.50;70.60;;;;;;4849431;29;114588;-80
2024/01/24 07:45:04;;;;;;;10.18;6.50;;;3.60;70.70;;;;;;4849283;28;115115;-80
2024/01/24 07:47:31;;;;;;;7.97;4.15;;;3.60;70.70;;;;;;4849282;28;115186;-81
2024/01/24 07:49:58;;;;;;;8.60;5.18;;;3.60;70.80;;;;;;4856014;28;114422;-81
2024/01/24 07:52:26;;;;;;;8.95;5.35;;;3.60;70.80;;;;;;4842853;28;115334;-80
2024/01/24 07:55:08;;;;;;;9.00;4.88;;;3.60;71.00;;;;;;4866748;28;115789;-80
2024/01/24 07:57:36;;;;;;;7.13;4.88;;;3.60;71.10;;;;;;4869800;28;115848;-79
2024/01/24 08:00:05;;;;;;;12.30;6.47;;;3.70;71.10;;;;;;4857298;28;114299;-81
2024/01/24 08:02:32;;;;;;;12.85;7.47;;;3.60;71.20;;;;;;4859274;28;114626;-80
2024/01/24 08:05:00;;;;;;;11.27;6.80;;;3.60;71.30;;;;;;4861241;28;115564;-80
2024/01/24 08:07:31;;;;;;;14.18;7.85;;;3.70;71.40;;;;;;4843180;28;119256;-80
2024/01/24 08:09:58;;;;;;;12.75;7.30;;;3.70;71.40;;;;;;4859404;28;114708;-82
2024/01/24 08:12:26;;;;;;;13.13;6.88;;;3.70;71.50;;;;;;4854330;28;114884;-80
2024/01/24 08:14:53;;;;;;;13.20;6.82;;;3.70;71.60;;;;;;4862013;28;115064;-81
2024/01/24 08:17:21;;;;;;;12.07;7.35;;;3.80;71.60;;;;;;4857840;28;115325;-81
2024/01/24 08:19:48;;;;;;;12.38;7.20;;;3.80;71.60;;;;;;4854165;28;114654;-82
2024/01/24 08:22:16;;;;;;;10.95;7.47;;;3.80;71.60;;;;;;4869773;28;114272;-81
2024/01/24 08:24:44;;;;;;;10.77;6.22;;;3.90;71.60;;;;;;4861138;28;116171;-80
2024/01/24 08:27:11;;;;;;;7.53;4.97;;;3.90;71.60;;;;;;4862879;28;115570;-80
2024/01/24 08:29:39;;;;;;;10.60;5.15;;;4.00;71.70;;;;;;4868628;28;114655;-81
2024/01/24 08:32:06;;;;;;;9.23;5.18;;;4.00;71.60;;;;;;4863666;28;116597;-80
2024/01/24 08:34:37;;;;;;;7.63;3.60;;;4.10;71.60;;;;;;4860222;28;118295;-80
2024/01/24 08:37:05;;;;;;;4.38;2.60;;;4.20;71.80;;;;;;4867146;28;114711;-81
2024/01/24 08:39:33;;;;;;;5.47;2.45;;;4.20;71.90;;;;;;4858330;28;114477;-82
2024/01/24 08:42:01;;;;;;;3.70;2.22;;;4.20;71.90;;;;;;4861479;28;114622;-81
2024/01/24 08:44:29;;;;;;;4.18;1.98;;;4.20;72.20;;;;;;4862608;28;115859;-82
2024/01/24 08:46:56;;;;;;;3.22;1.90;;;4.30;72.10;;;;;;4861677;28;115043;-81
2024/01/24 08:49:24;;;;;;;3.50;1.70;;;4.40;72.20;;;;;;4864156;28;114508;-81
2024/01/24 08:51:58;;;;;;;3.50;1.10;;;4.40;72.30;;;;;;4849766;28;114800;-81
2024/01/24 08:54:26;;;;;;;1.75;0.90;;;4.50;73.10;;;;;;4857459;28;115208;-81
2024/01/24 08:56:56;;;;;;;2.67;1.13;;;4.60;73.10;;;;;;4853528;28;115374;-82
2024/01/24 08:59:25;;;;;;;1.80;0.73;;;4.80;73.30;;;;;;4849672;28;114701;-82
2024/01/24 09:01:55;;;;;;;4.35;1.00;;;5.00;73.30;;;;;;4857411;28;114899;-80
2024/01/24 09:04:23;;;;;;;2.95;1.00;;;5.10;73.40;;;;;;4866228;28;115654;-80
2024/01/24 09:06:51;;;;;;;2.17;1.00;;;5.20;73.20;;;;;;4843878;28;115456;-80
2024/01/24 09:09:19;;;;;;;1.73;0.80;;;5.30;73.20;;;;;;4883155;28;114599;-81
2024/01/24 09:11:46;;;;;;;2.17;0.80;;;5.40;73.10;;;;;;4871943;28;114560;-83
2024/01/24 09:14:24;;;;;;;3.42;1.13;;;5.50;73.20;;;;;;4866348;28;115235;-81
2024/01/24 09:16:52;;;;;;;1.45;0.70;;;5.60;73.10;;;;;;4855834;28;115174;-81
2024/01/24 09:19:20;;;;;;;2.28;0.80;;;5.60;73.00;;;;;;4846700;28;114544;-81
2024/01/24 09:21:48;;;;;;;2.97;1.00;;;5.70;73.00;;;;;;4863950;28;114658;-81
2024/01/24 09:24:19;;;;;;;3.67;0.90;;;5.80;73.00;;;;;;4860590;28;116095;-82
2024/01/24 09:26:47;;;;;;;2.85;0.90;;;5.80;73.10;;;;;;4858586;28;114876;-82
2024/01/24 09:29:18;;;;;;;3.42;0.90;;;5.90;73.30;;;;;;4877921;28;114634;-82
2024/01/24 09:31:45;;;;;;;2.28;1.00;;;5.90;73.40;;;;;;4866367;28;114679;-79
2024/01/24 09:34:16;;;;;;;2.47;0.90;;;6.00;73.60;;;;;;4866825;28;116245;-81
2024/01/24 09:36:47;;;;;;;3.25;0.80;;;6.00;73.70;;;;;;4876763;28;114841;-81
2024/01/24 09:39:14;;;;;;;1.92;0.80;;;6.10;73.60;;;;;;4859805;28;114759;-80
2024/01/24 09:41:42;;;;;;;2.38;1.08;;;6.10;73.70;;;;;;4855599;28;114726;-81
2024/01/24 09:44:11;;;;;;;3.08;1.02;;;6.20;73.70;;;;;;4866743;28;118821;-81
2024/01/24 09:46:42;;;;;;;1.90;0.88;;;6.20;73.60;;;;;;4871707;28;114943;-81
2024/01/24 09:49:14;;;;;;;3.45;0.98;;;6.30;73.50;;;;;;4864664;28;114645;-82
2024/01/24 09:51:42;;;;;;;2.13;0.70;;;6.30;73.50;;;;;;4842402;28;116980;-82
2024/01/24 09:54:10;;;;;;;2.20;0.90;;;6.30;73.30;;;;;;4851209;28;116395;-81
2024/01/24 09:56:38;;;;;;;2.63;0.98;;;6.40;73.20;;;;;;4836468;28;115948;-82
2024/01/24 09:59:07;;;;;;;2.40;0.82;;;6.40;73.00;;;;;;4876025;28;114648;-82
2024/01/24 10:01:38;;;;;;;2.58;0.70;;;6.40;72.90;;;;;;4860980;28;114601;-82
2024/01/24 10:04:09;;;;;;;5.32;2.13;;;6.50;72.90;;;;;;4856046;28;116305;-81
2024/01/24 10:06:39;;;;;;;2.92;1.17;;;6.50;72.20;;;;;;4853948;28;116117;-82
2024/01/24 10:09:07;;;;;;;3.53;1.30;;;6.40;72.00;;;;;;4866181;28;114764;-81
2024/01/24 10:11:35;;;;;;;3.40;1.10;;;6.40;72.00;;;;;;4861309;28;114620;-81
2024/01/24 10:14:06;;;;;;;2.35;0.85;;;6.40;72.20;;;;;;4874488;28;116444;-82
2024/01/24 10:16:34;;;;;;;1.58;0.80;;;6.40;72.30;;;;;;4871686;28;115919;-80
2024/01/24 10:19:01;;;;;;;1.17;0.60;;;6.50;72.30;;;;;;4870312;28;114853;-80
2024/01/24 10:21:29;;;;;;;1.70;0.70;;;6.50;72.20;;;;;;4856354;28;114834;-81
2024/01/24 10:23:59;;;;;;;1.88;0.70;;;6.70;72.10;;;;;;4859837;28;116062;-83
2024/01/24 10:26:27;;;;;;;2.35;1.10;;;6.70;72.00;;;;;;4871502;28;114977;-81
2024/01/24 10:28:57;;;;;;;1.30;0.80;;;6.70;71.80;;;;;;4841640;28;114331;-80
2024/01/24 10:31:25;;;;;;;2.75;1.38;;;6.80;71.70;;;;;;4857734;28;114533;-81
2024/01/24 10:33:55;;;;;;;2.35;0.80;;;6.80;71.70;;;;;;4864606;28;115670;-81
2024/01/24 10:36:24;;;;;;;3.17;0.98;;;6.90;71.70;;;;;;4841249;28;114911;-81
2024/01/24 10:39:04;;;;;;;2.70;1.10;;;6.90;71.50;;;;;;4854308;28;114851;-82
2024/01/24 10:41:40;;;;;;;2.45;1.00;;;6.90;71.40;;;;;;4867756;28;115099;-81
2024/01/24 10:44:09;;;;;;;2.85;1.00;;;6.90;71.50;;;;;;4849281;28;116269;-82
2024/01/24 10:46:38;;;;;;;3.88;1.35;;;7.00;71.50;;;;;;4847842;29;114660;-81
2024/01/24 10:49:06;;;;;;;1.60;0.80;;;7.00;71.40;;;;;;4863509;28;114416;-81
2024/01/24 10:51:34;;;;;;;1.25;0.60;;;7.10;71.40;;;;;;4848624;29;114424;-82
2024/01/24 10:54:05;;;;;;;1.70;0.70;;;7.20;71.40;;;;;;4860778;28;116277;-82
2024/01/24 10:56:33;;;;;;;2.47;0.90;;;7.20;71.40;;;;;;4853335;28;114697;-82
2024/01/24 10:59:05;;;;;;;1.42;0.70;;;7.30;71.30;;;;;;4869648;28;114691;-83
2024/01/24 11:01:34;;;;;;;1.85;0.88;;;7.30;71.20;;;;;;4868966;28;114368;-82
2024/01/24 11:04:08;;;;;;;2.00;0.82;;;7.40;71.20;;;;;;4837077;28;115841;-82
2024/01/24 11:06:43;;;;;;;1.75;0.95;;;7.40;71.10;;;;;;4897648;28;114676;-82
2024/01/24 11:09:42;;;;;;;2.20;0.77;;;7.50;71.10;;;;;;4860143;29;114874;-82
2024/01/24 11:12:11;;;;;;;1.25;0.60;;;7.60;71.00;;;;;;4852088;28;114555;-81
2024/01/24 11:14:39;;;;;;;1.98;0.88;;;7.60;71.00;;;;;;4863920;28;116459;-80
2024/01/24 11:17:06;;;;;;;1.67;0.98;;;7.60;71.00;;;;;;4847491;28;114848;-82
2024/01/24 11:19:34;;;;;;;4.80;1.00;;;7.70;71.00;;;;;;4829742;28;114856;-81
2024/01/24 11:22:08;;;;;;;2.65;1.08;;;7.70;70.90;;;;;;4867643;28;115160;-82
2024/01/24 11:24:53;;;;;;;2.55;1.20;;;7.70;71.00;;;;;;4869021;28;115136;-82
2024/01/24 11:27:33;;;;;;;3.15;1.40;;;7.70;70.90;;;;;;4849868;28;117626;-82
2024/01/24 11:30:16;;;;;;;3.15;1.10;;;7.80;70.90;;;;;;4862706;28;114546;-82
2024/01/24 11:32:50;;;;;;;2.38;1.30;;;7.80;70.70;;;;;;4867656;28;114577;-81
2024/01/24 11:35:38;;;;;;;2.45;1.20;;;7.80;70.60;;;;;;4863527;28;115057;-82
2024/01/24 11:38:26;;;;;;;3.78;1.20;;;7.90;70.50;;;;;;4833719;28;118352;-81
2024/01/24 11:40:57;;;;;;;3.85;1.10;;;7.90;70.40;;;;;;4866265;28;114580;-82
2024/01/24 11:43:32;;;;;;;4.35;1.25;;;8.00;70.30;;;;;;4865570;28;114708;-83
2024/01/24 11:46:06;;;;;;;4.18;1.42;;;8.00;70.30;;;;;;4878997;28;117729;-83
2024/01/24 11:48:36;;;;;;;3.65;1.23;;;8.10;70.30;;;;;;4865832;28;115352;-81
2024/01/24 11:51:12;;;;;;;3.33;1.35;;;8.10;70.20;;;;;;4866244;28;114765;-82
2024/01/24 11:53:40;;;;;;;2.90;1.40;;;8.20;70.10;;;;;;4867267;28;114673;-82
2024/01/24 11:56:17;;;;;;;3.20;1.20;;;8.20;69.90;;;;;;4867764;28;115148;-82
2024/01/24 11:58:45;;;;;;;2.67;1.10;;;8.20;69.90;;;;;;4868436;28;114770;-82
2024/01/24 12:01:13;;;;;;;4.18;1.60;;;8.20;69.70;;;;;;4837898;28;114542;-81
2024/01/24 12:03:47;;;;;;;3.13;1.45;;;8.20;69.70;;;;;;4853891;28;114757;-80
2024/01/24 12:06:16;;;;;;;3.35;1.48;;;8.20;69.60;;;;;;4852121;28;117505;-82
2024/01/24 12:08:46;;;;;;;3.08;1.60;;;8.20;69.60;;;;;;4883814;28;114894;-80
2024/01/24 12:11:17;;;;;;;;;;;8.20;69.60;;;;;;4867114;28;114523;-81
2024/01/24 12:13:45;;;;;;;2.92;1.42;;;8.20;69.40;;;;;;4869245;28;114578;-82
2024/01/24 12:16:12;;;;;;;4.18;1.38;;;8.30;69.50;;;;;;4868229;28;115327;-81
2024/01/24 12:18:40;;;;;;;3.25;1.50;;;8.40;69.50;;;;;;4882947;28;114761;-81
2024/01/24 12:21:09;;;;;;;3.00;1.50;;;8.50;69.20;;;;;;4883522;28;114786;-81
2024/01/24 12:23:37;;;;;;;3.05;1.50;;;8.60;68.90;;;;;;4869249;28;114413;-81
2024/01/24 12:26:04;;;;;;;4.22;1.55;;;8.60;68.80;;;;;;4869007;28;115024;-81
2024/01/24 12:28:32;;;;;;;4.43;1.80;;;8.60;68.60;;;;;;4867165;28;114792;-81
2024/01/24 12:31:03;;;;;;;2.40;1.20;;;8.70;68.40;;;;;;4877844;28;114844;-82
2024/01/24 12:33:33;;;;;;;2.70;1.35;;;8.70;68.20;;;;;;4868547;28;114632;-82
2024/01/24 12:36:04;;;;;;;2.28;1.10;;;8.70;68.20;;;;;;4883108;28;115116;-81
2024/01/24 12:38:38;;;;;;;2.40;1.10;;;8.60;68.20;;;;;;4868993;28;114753;-81
2024/01/24 12:41:06;;;;;;;2.13;1.30;;;8.60;68.20;;;;;;4869941;28;114674;-80
2024/01/24 12:43:33;;;;;;;3.22;1.42;;;8.60;68.30;;;;;;4851750;28;114649;-81
2024/01/24 12:46:07;;;;;;;3.33;1.33;;;8.60;68.30;;;;;;4847418;28;116350;-80
2024/01/24 12:48:38;;;;;;;2.63;1.30;;;8.60;68.50;;;;;;4859733;28;115890;-80